sensor_id;sensor_type;location;lat;lon;timestamp;P1;durP1;ratioP1;P2;durP2;ratioP2
48777;SDS011;34578;0.000;0.000;2023-02-17T00:02:02;4.37;;;1.27;;
48777;SDS011;34578;0.000;0.000;2023-02-17T00:07:02;2.65;;;1.30;;
48777;SDS011;34578;0.000;0.000;2023-02-17T00:12:03;2.53;;;1.27;;
48777;SDS011;34578;0.000;0.000;2023-02-17T00:17:03;1.27;;;0.90;;
48777;SDS011;34578;0.000;0.000;2023-02-17T00:22:03;2.33;;;1.10;;
48777;SDS011;34578;0.000;0.000;2023-02-17T00:27:04;1.50;;;0.90;;
48777;SDS011;34578;0.000;0.000;2023-02-17T00:32:05;1.90;;;1.25;;
48777;SDS011;34578;0.000;0.000;2023-02-17T00:37:05;1.33;;;0.70;;
48777;SDS011;34578;0.000;0.000;2023-02-17T00:42:06;2.60;;;1.33;;
48777;SDS011;34578;0.000;0.000;2023-02-17T00:47:06;2.27;;;1.07;;
48777;SDS011;34578;0.000;0.000;2023-02-17T00:52:07;2.58;;;1.88;;
48777;SDS011;34578;0.000;0.000;2023-02-17T00:57:07;2.40;;;1.00;;
48777;SDS011;34578;0.000;0.000;2023-02-17T01:02:08;2.58;;;1.17;;
48777;SDS011;34578;0.000;0.000;2023-02-17T01:07:09;2.17;;;0.90;;
48777;SDS011;34578;0.000;0.000;2023-02-17T01:12:10;2.43;;;0.90;;
48777;SDS011;34578;0.000;0.000;2023-02-17T01:17:12;1.48;;;1.15;;
48777;SDS011;34578;0.000;0.000;2023-02-17T01:22:12;2.37;;;1.10;;
48777;SDS011;34578;0.000;0.000;2023-02-17T01:27:13;1.63;;;0.77;;
48777;SDS011;34578;0.000;0.000;2023-02-17T01:32:13;1.77;;;1.00;;
48777;SDS011;34578;0.000;0.000;2023-02-17T01:37:13;1.15;;;1.05;;
48777;SDS011;34578;0.000;0.000;2023-02-17T01:42:15;0.75;;;0.70;;
48777;SDS011;34578;0.000;0.000;2023-02-17T01:47:16;2.17;;;1.00;;
48777;SDS011;34578;0.000;0.000;2023-02-17T01:52:18;1.30;;;1.07;;
48777;SDS011;34578;0.000;0.000;2023-02-17T01:57:22;3.58;;;0.75;;
48777;SDS011;34578;0.000;0.000;2023-02-17T02:02:26;1.30;;;0.88;;
48777;SDS011;34578;0.000;0.000;2023-02-17T02:07:33;1.70;;;1.30;;
48777;SDS011;34578;0.000;0.000;2023-02-17T02:12:38;1.27;;;0.80;;
48777;SDS011;34578;0.000;0.000;2023-02-17T02:17:44;2.05;;;1.00;;
48777;SDS011;34578;0.000;0.000;2023-02-17T02:22:59;1.40;;;1.00;;
48777;SDS011;34578;0.000;0.000;2023-02-17T02:38:39;1.25;;;0.70;;
48777;SDS011;34578;0.000;0.000;2023-02-17T02:43:42;0.98;;;0.80;;
48777;SDS011;34578;0.000;0.000;2023-02-17T02:48:42;1.30;;;1.00;;
48777;SDS011;34578;0.000;0.000;2023-02-17T02:53:49;1.50;;;0.77;;
48777;SDS011;34578;0.000;0.000;2023-02-17T02:59:20;0.80;;;0.60;;
48777;SDS011;34578;0.000;0.000;2023-02-17T03:04:30;1.67;;;0.85;;
48777;SDS011;34578;0.000;0.000;2023-02-17T03:09:37;1.52;;;0.77;;
48777;SDS011;34578;0.000;0.000;2023-02-17T03:14:38;1.58;;;0.80;;
48777;SDS011;34578;0.000;0.000;2023-02-17T03:19:38;1.30;;;0.70;;
48777;SDS011;34578;0.000;0.000;2023-02-17T03:24:39;1.30;;;0.80;;
48777;SDS011;34578;0.000;0.000;2023-02-17T03:29:41;1.70;;;0.77;;
48777;SDS011;34578;0.000;0.000;2023-02-17T03:34:42;0.93;;;0.82;;
48777;SDS011;34578;0.000;0.000;2023-02-17T03:39:42;1.10;;;0.70;;
48777;SDS011;34578;0.000;0.000;2023-02-17T03:44:42;1.33;;;0.73;;
48777;SDS011;34578;0.000;0.000;2023-02-17T03:49:43;1.40;;;0.90;;
48777;SDS011;34578;0.000;0.000;2023-02-17T03:54:43;2.67;;;1.00;;
48777;SDS011;34578;0.000;0.000;2023-02-17T03:59:44;1.30;;;1.00;;
48777;SDS011;34578;0.000;0.000;2023-02-17T04:04:44;1.50;;;1.00;;
48777;SDS011;34578;0.000;0.000;2023-02-17T04:09:44;1.67;;;0.87;;
48777;SDS011;34578;0.000;0.000;2023-02-17T04:14:45;1.83;;;0.90;;
48777;SDS011;34578;0.000;0.000;2023-02-17T04:19:45;4.63;;;1.03;;
48777;SDS011;34578;0.000;0.000;2023-02-17T04:24:45;1.50;;;0.87;;
48777;SDS011;34578;0.000;0.000;2023-02-17T04:29:46;0.97;;;0.70;;
48777;SDS011;34578;0.000;0.000;2023-02-17T04:34:49;0.60;;;0.60;;
48777;SDS011;34578;0.000;0.000;2023-02-17T04:39:50;1.03;;;0.87;;
48777;SDS011;34578;0.000;0.000;2023-02-17T04:44:50;1.63;;;1.07;;
48777;SDS011;34578;0.000;0.000;2023-02-17T04:49:50;1.15;;;0.77;;
48777;SDS011;34578;0.000;0.000;2023-02-17T04:54:51;2.63;;;0.70;;
48777;SDS011;34578;0.000;0.000;2023-02-17T04:59:51;1.37;;;0.80;;
48777;SDS011;34578;0.000;0.000;2023-02-17T05:04:52;2.27;;;1.00;;
48777;SDS011;34578;0.000;0.000;2023-02-17T05:09:53;1.42;;;0.80;;
48777;SDS011;34578;0.000;0.000;2023-02-17T05:14:54;1.10;;;0.60;;
48777;SDS011;34578;0.000;0.000;2023-02-17T05:19:54;0.73;;;0.60;;
48777;SDS011;34578;0.000;0.000;2023-02-17T05:24:54;1.20;;;0.80;;
48777;SDS011;34578;0.000;0.000;2023-02-17T05:29:55;0.97;;;0.63;;
48777;SDS011;34578;0.000;0.000;2023-02-17T05:34:55;1.50;;;0.70;;
48777;SDS011;34578;0.000;0.000;2023-02-17T05:39:55;1.90;;;0.90;;
48777;SDS011;34578;0.000;0.000;2023-02-17T05:44:56;1.67;;;0.97;;
48777;SDS011;34578;0.000;0.000;2023-02-17T05:49:56;1.95;;;1.00;;
48777;SDS011;34578;0.000;0.000;2023-02-17T05:54:57;1.93;;;0.80;;
48777;SDS011;34578;0.000;0.000;2023-02-17T05:59:57;1.23;;;0.83;;
48777;SDS011;34578;0.000;0.000;2023-02-17T06:04:57;2.80;;;1.07;;
48777;SDS011;34578;0.000;0.000;2023-02-17T06:09:58;1.20;;;0.83;;
48777;SDS011;34578;0.000;0.000;2023-02-17T06:14:58;1.43;;;0.90;;
48777;SDS011;34578;0.000;0.000;2023-02-17T06:19:59;2.50;;;1.00;;
48777;SDS011;34578;0.000;0.000;2023-02-17T06:24:59;2.50;;;1.10;;
48777;SDS011;34578;0.000;0.000;2023-02-17T06:29:59;5.90;;;1.10;;
48777;SDS011;34578;0.000;0.000;2023-02-17T06:35:00;4.53;;;1.20;;
48777;SDS011;34578;0.000;0.000;2023-02-17T06:40:00;3.92;;;2.08;;
48777;SDS011;34578;0.000;0.000;2023-02-17T06:45:01;5.35;;;1.23;;
48777;SDS011;34578;0.000;0.000;2023-02-17T06:50:04;1.80;;;1.00;;
48777;SDS011;34578;0.000;0.000;2023-02-17T06:55:06;1.52;;;1.20;;
48777;SDS011;34578;0.000;0.000;2023-02-17T07:00:06;5.45;;;1.08;;
48777;SDS011;34578;0.000;0.000;2023-02-17T07:05:07;6.22;;;1.00;;
48777;SDS011;34578;0.000;0.000;2023-02-17T07:10:08;6.80;;;1.42;;
48777;SDS011;34578;0.000;0.000;2023-02-17T07:15:09;5.32;;;2.10;;
48777;SDS011;34578;0.000;0.000;2023-02-17T07:20:09;4.07;;;1.40;;
48777;SDS011;34578;0.000;0.000;2023-02-17T07:25:10;4.38;;;1.80;;
48777;SDS011;34578;0.000;0.000;2023-02-17T07:30:11;10.80;;;1.75;;
48777;SDS011;34578;0.000;0.000;2023-02-17T07:35:14;4.53;;;1.52;;
48777;SDS011;34578;0.000;0.000;2023-02-17T07:40:15;6.38;;;1.50;;
48777;SDS011;34578;0.000;0.000;2023-02-17T07:45:15;7.65;;;1.60;;
48777;SDS011;34578;0.000;0.000;2023-02-17T07:50:16;10.95;;;1.85;;
48777;SDS011;34578;0.000;0.000;2023-02-17T07:55:16;7.90;;;1.73;;
48777;SDS011;34578;0.000;0.000;2023-02-17T08:00:18;9.52;;;1.60;;
48777;SDS011;34578;0.000;0.000;2023-02-17T08:05:19;4.85;;;1.35;;
48777;SDS011;34578;0.000;0.000;2023-02-17T08:10:20;2.53;;;1.03;;
48777;SDS011;34578;0.000;0.000;2023-02-17T08:15:38;2.80;;;0.90;;
48777;SDS011;34578;0.000;0.000;2023-02-17T08:20:40;7.63;;;1.85;;
48777;SDS011;34578;0.000;0.000;2023-02-17T08:25:40;20.80;;;3.17;;
48777;SDS011;34578;0.000;0.000;2023-02-17T08:30:40;10.30;;;2.30;;
48777;SDS011;34578;0.000;0.000;2023-02-17T08:35:41;9.70;;;2.57;;
48777;SDS011;34578;0.000;0.000;2023-02-17T08:40:41;12.63;;;2.60;;
48777;SDS011;34578;0.000;0.000;2023-02-17T08:45:42;6.88;;;2.10;;
48777;SDS011;34578;0.000;0.000;2023-02-17T08:50:45;7.82;;;2.38;;
48777;SDS011;34578;0.000;0.000;2023-02-17T08:55:46;9.93;;;1.60;;
48777;SDS011;34578;0.000;0.000;2023-02-17T09:00:47;17.33;;;3.40;;
48777;SDS011;34578;0.000;0.000;2023-02-17T09:05:47;12.02;;;2.85;;
48777;SDS011;34578;0.000;0.000;2023-02-17T09:10:48;17.23;;;3.00;;
48777;SDS011;34578;0.000;0.000;2023-02-17T09:15:49;9.05;;;2.30;;
48777;SDS011;34578;0.000;0.000;2023-02-17T09:20:52;6.45;;;2.00;;
48777;SDS011;34578;0.000;0.000;2023-02-17T09:26:03;8.50;;;2.58;;
48777;SDS011;34578;0.000;0.000;2023-02-17T09:31:13;7.35;;;1.80;;
48777;SDS011;34578;0.000;0.000;2023-02-17T09:36:17;9.15;;;1.75;;
48777;SDS011;34578;0.000;0.000;2023-02-17T09:41:31;11.73;;;2.00;;
48777;SDS011;34578;0.000;0.000;2023-02-17T09:46:42;6.18;;;1.80;;
48777;SDS011;34578;0.000;0.000;2023-02-17T09:52:33;20.48;;;2.17;;
48777;SDS011;34578;0.000;0.000;2023-02-17T09:57:12;12.23;;;2.10;;
48777;SDS011;34578;0.000;0.000;2023-02-17T10:02:24;11.32;;;1.75;;
48777;SDS011;34578;0.000;0.000;2023-02-17T10:07:45;4.85;;;1.65;;
48777;SDS011;34578;0.000;0.000;2023-02-17T10:12:50;6.63;;;1.48;;
48777;SDS011;34578;0.000;0.000;2023-02-17T10:18:04;9.30;;;2.20;;
48777;SDS011;34578;0.000;0.000;2023-02-17T10:23:24;4.22;;;1.73;;
48777;SDS011;34578;0.000;0.000;2023-02-17T10:34:00;5.07;;;1.23;;
48777;SDS011;34578;0.000;0.000;2023-02-17T10:39:13;2.88;;;1.85;;
48777;SDS011;34578;0.000;0.000;2023-02-17T10:44:20;5.50;;;2.78;;
48777;SDS011;34578;0.000;0.000;2023-02-17T10:49:29;1.90;;;1.10;;
48777;SDS011;34578;0.000;0.000;2023-02-17T10:54:36;1.90;;;1.15;;
48777;SDS011;34578;0.000;0.000;2023-02-17T10:59:42;1.73;;;0.85;;
48777;SDS011;34578;0.000;0.000;2023-02-17T11:04:45;1.42;;;1.00;;
48777;SDS011;34578;0.000;0.000;2023-02-17T11:09:51;2.83;;;0.93;;
48777;SDS011;34578;0.000;0.000;2023-02-17T11:14:56;2.05;;;0.90;;
48777;SDS011;34578;0.000;0.000;2023-02-17T11:19:59;2.03;;;0.68;;
48777;SDS011;34578;0.000;0.000;2023-02-17T11:25:05;1.20;;;0.80;;
48777;SDS011;34578;0.000;0.000;2023-02-17T11:30:20;2.23;;;0.93;;
48777;SDS011;34578;0.000;0.000;2023-02-17T11:35:25;7.53;;;3.58;;
48777;SDS011;34578;0.000;0.000;2023-02-17T11:40:30;4.28;;;1.45;;
48777;SDS011;34578;0.000;0.000;2023-02-17T11:56:43;2.20;;;1.08;;
48777;SDS011;34578;0.000;0.000;2023-02-17T12:07:40;4.85;;;1.30;;
48777;SDS011;34578;0.000;0.000;2023-02-17T12:12:50;16.75;;;1.38;;
48777;SDS011;34578;0.000;0.000;2023-02-17T12:34:41;3.40;;;1.05;;
48777;SDS011;34578;0.000;0.000;2023-02-17T12:39:52;1.73;;;0.90;;
48777;SDS011;34578;0.000;0.000;2023-02-17T12:44:59;2.15;;;0.88;;
48777;SDS011;34578;0.000;0.000;2023-02-17T12:50:22;1.30;;;0.63;;
48777;SDS011;34578;0.000;0.000;2023-02-17T12:55:28;3.17;;;1.00;;
48777;SDS011;34578;0.000;0.000;2023-02-17T13:00:37;6.18;;;1.08;;
48777;SDS011;34578;0.000;0.000;2023-02-17T13:05:43;1.42;;;0.80;;
48777;SDS011;34578;0.000;0.000;2023-02-17T13:10:58;1.60;;;0.57;;
48777;SDS011;34578;0.000;0.000;2023-02-17T13:16:06;1.05;;;0.80;;
48777;SDS011;34578;0.000;0.000;2023-02-17T13:26:25;12.02;;;2.03;;
48777;SDS011;34578;0.000;0.000;2023-02-17T13:31:30;14.35;;;1.70;;
48777;SDS011;34578;0.000;0.000;2023-02-17T13:41:43;5.20;;;1.52;;
48777;SDS011;34578;0.000;0.000;2023-02-17T13:46:45;10.05;;;1.65;;
48777;SDS011;34578;0.000;0.000;2023-02-17T13:51:46;12.00;;;1.42;;
48777;SDS011;34578;0.000;0.000;2023-02-17T13:56:50;8.82;;;1.67;;
48777;SDS011;34578;0.000;0.000;2023-02-17T14:01:52;11.43;;;2.95;;
48777;SDS011;34578;0.000;0.000;2023-02-17T14:07:01;10.43;;;1.50;;
48777;SDS011;34578;0.000;0.000;2023-02-17T14:12:05;15.38;;;2.20;;
48777;SDS011;34578;0.000;0.000;2023-02-17T14:17:30;8.80;;;1.35;;
48777;SDS011;34578;0.000;0.000;2023-02-17T14:22:32;7.68;;;1.40;;
48777;SDS011;34578;0.000;0.000;2023-02-17T14:27:47;9.95;;;1.33;;
48777;SDS011;34578;0.000;0.000;2023-02-17T14:32:50;6.85;;;0.95;;
48777;SDS011;34578;0.000;0.000;2023-02-17T14:38:38;16.55;;;1.98;;
48777;SDS011;34578;0.000;0.000;2023-02-17T14:43:38;6.00;;;1.55;;
48777;SDS011;34578;0.000;0.000;2023-02-17T14:48:39;9.30;;;1.67;;
48777;SDS011;34578;0.000;0.000;2023-02-17T14:53:39;15.15;;;2.08;;
48777;SDS011;34578;0.000;0.000;2023-02-17T14:58:40;11.00;;;1.80;;
48777;SDS011;34578;0.000;0.000;2023-02-17T15:03:40;9.10;;;1.80;;
48777;SDS011;34578;0.000;0.000;2023-02-17T15:08:40;8.63;;;1.83;;
48777;SDS011;34578;0.000;0.000;2023-02-17T15:13:43;9.77;;;1.55;;
48777;SDS011;34578;0.000;0.000;2023-02-17T15:18:43;9.57;;;1.63;;
48777;SDS011;34578;0.000;0.000;2023-02-17T15:23:44;12.63;;;1.97;;
48777;SDS011;34578;0.000;0.000;2023-02-17T15:28:44;14.10;;;2.67;;
48777;SDS011;34578;0.000;0.000;2023-02-17T15:33:48;4.85;;;1.80;;
48777;SDS011;34578;0.000;0.000;2023-02-17T15:38:54;11.57;;;1.83;;
48777;SDS011;34578;0.000;0.000;2023-02-17T15:43:55;9.63;;;1.50;;
48777;SDS011;34578;0.000;0.000;2023-02-17T15:48:56;4.78;;;1.38;;
48777;SDS011;34578;0.000;0.000;2023-02-17T15:53:58;4.93;;;1.45;;
48777;SDS011;34578;0.000;0.000;2023-02-17T15:58:59;8.20;;;2.17;;
48777;SDS011;34578;0.000;0.000;2023-02-17T16:09:10;6.43;;;1.40;;
48777;SDS011;34578;0.000;0.000;2023-02-17T16:14:11;7.18;;;2.38;;
48777;SDS011;34578;0.000;0.000;2023-02-17T16:19:22;4.50;;;1.00;;
48777;SDS011;34578;0.000;0.000;2023-02-17T16:24:23;3.13;;;1.00;;
48777;SDS011;34578;0.000;0.000;2023-02-17T16:29:23;4.95;;;0.93;;
48777;SDS011;34578;0.000;0.000;2023-02-17T16:34:24;4.93;;;1.37;;
48777;SDS011;34578;0.000;0.000;2023-02-17T16:39:25;4.88;;;1.00;;
48777;SDS011;34578;0.000;0.000;2023-02-17T16:44:25;2.80;;;1.15;;
48777;SDS011;34578;0.000;0.000;2023-02-17T16:49:26;5.63;;;2.10;;
48777;SDS011;34578;0.000;0.000;2023-02-17T16:54:32;7.53;;;1.70;;
48777;SDS011;34578;0.000;0.000;2023-02-17T16:59:32;4.32;;;1.10;;
48777;SDS011;34578;0.000;0.000;2023-02-17T17:04:33;2.40;;;1.30;;
48777;SDS011;34578;0.000;0.000;2023-02-17T17:09:33;2.90;;;1.27;;
48777;SDS011;34578;0.000;0.000;2023-02-17T17:14:33;3.35;;;1.13;;
48777;SDS011;34578;0.000;0.000;2023-02-17T17:19:34;2.20;;;0.90;;
48777;SDS011;34578;0.000;0.000;2023-02-17T17:24:34;2.73;;;0.97;;
48777;SDS011;34578;0.000;0.000;2023-02-17T17:29:35;4.57;;;1.03;;
48777;SDS011;34578;0.000;0.000;2023-02-17T17:34:35;3.40;;;1.00;;
48777;SDS011;34578;0.000;0.000;2023-02-17T17:39:37;5.28;;;1.40;;
48777;SDS011;34578;0.000;0.000;2023-02-17T17:44:39;4.32;;;0.77;;
48777;SDS011;34578;0.000;0.000;2023-02-17T17:49:39;1.83;;;0.60;;
48777;SDS011;34578;0.000;0.000;2023-02-17T17:54:40;2.33;;;0.77;;
48777;SDS011;34578;0.000;0.000;2023-02-17T17:59:41;1.08;;;0.70;;
48777;SDS011;34578;0.000;0.000;2023-02-17T18:04:41;3.10;;;1.37;;
48777;SDS011;34578;0.000;0.000;2023-02-17T18:09:41;2.53;;;0.80;;
48777;SDS011;34578;0.000;0.000;2023-02-17T18:14:42;1.88;;;0.68;;
48777;SDS011;34578;0.000;0.000;2023-02-17T18:19:43;3.53;;;1.23;;
48777;SDS011;34578;0.000;0.000;2023-02-17T18:24:47;1.17;;;0.70;;
48777;SDS011;34578;0.000;0.000;2023-02-17T18:29:47;3.38;;;0.65;;
48777;SDS011;34578;0.000;0.000;2023-02-17T18:34:48;2.22;;;0.90;;
48777;SDS011;34578;0.000;0.000;2023-02-17T18:39:50;1.67;;;0.70;;
48777;SDS011;34578;0.000;0.000;2023-02-17T18:44:51;1.67;;;0.70;;
48777;SDS011;34578;0.000;0.000;2023-02-17T18:49:52;2.13;;;0.60;;
48777;SDS011;34578;0.000;0.000;2023-02-17T18:54:53;1.87;;;0.90;;
48777;SDS011;34578;0.000;0.000;2023-02-17T18:59:56;4.35;;;0.90;;
48777;SDS011;34578;0.000;0.000;2023-02-17T19:04:56;2.47;;;0.90;;
48777;SDS011;34578;0.000;0.000;2023-02-17T19:09:57;50.67;;;3.83;;
48777;SDS011;34578;0.000;0.000;2023-02-17T19:14:57;15.07;;;1.90;;
48777;SDS011;34578;0.000;0.000;2023-02-17T19:19:58;7.97;;;1.80;;
48777;SDS011;34578;0.000;0.000;2023-02-17T19:24:59;10.57;;;1.85;;
48777;SDS011;34578;0.000;0.000;2023-02-17T19:29:59;12.10;;;1.67;;
48777;SDS011;34578;0.000;0.000;2023-02-17T19:35:00;16.73;;;1.60;;
48777;SDS011;34578;0.000;0.000;2023-02-17T19:40:00;15.27;;;1.60;;
48777;SDS011;34578;0.000;0.000;2023-02-17T19:45:00;14.83;;;1.77;;
48777;SDS011;34578;0.000;0.000;2023-02-17T19:50:01;12.83;;;1.63;;
48777;SDS011;34578;0.000;0.000;2023-02-17T19:55:02;13.77;;;2.28;;
48777;SDS011;34578;0.000;0.000;2023-02-17T20:00:04;13.18;;;1.83;;
48777;SDS011;34578;0.000;0.000;2023-02-17T20:05:06;7.00;;;1.77;;
48777;SDS011;34578;0.000;0.000;2023-02-17T20:10:07;9.10;;;1.42;;
48777;SDS011;34578;0.000;0.000;2023-02-17T20:15:10;4.10;;;0.98;;
48777;SDS011;34578;0.000;0.000;2023-02-17T20:20:10;9.57;;;2.03;;
48777;SDS011;34578;0.000;0.000;2023-02-17T20:25:11;10.00;;;2.03;;
48777;SDS011;34578;0.000;0.000;2023-02-17T20:30:11;11.55;;;2.28;;
48777;SDS011;34578;0.000;0.000;2023-02-17T20:35:12;7.22;;;1.55;;
48777;SDS011;34578;0.000;0.000;2023-02-17T20:40:13;7.78;;;1.95;;
48777;SDS011;34578;0.000;0.000;2023-02-17T20:45:13;9.90;;;2.13;;
48777;SDS011;34578;0.000;0.000;2023-02-17T20:50:15;8.20;;;2.13;;
48777;SDS011;34578;0.000;0.000;2023-02-17T20:55:16;6.72;;;2.28;;
48777;SDS011;34578;0.000;0.000;2023-02-17T21:00:19;7.75;;;2.30;;
48777;SDS011;34578;0.000;0.000;2023-02-17T21:05:22;6.50;;;1.83;;
48777;SDS011;34578;0.000;0.000;2023-02-17T21:10:24;8.52;;;2.08;;
48777;SDS011;34578;0.000;0.000;2023-02-17T21:15:27;8.05;;;1.90;;
48777;SDS011;34578;0.000;0.000;2023-02-17T21:20:27;4.43;;;1.75;;
48777;SDS011;34578;0.000;0.000;2023-02-17T21:25:28;4.43;;;1.17;;
48777;SDS011;34578;0.000;0.000;2023-02-17T21:30:28;4.37;;;1.27;;
48777;SDS011;34578;0.000;0.000;2023-02-17T21:35:28;3.67;;;1.63;;
48777;SDS011;34578;0.000;0.000;2023-02-17T21:40:29;5.20;;;1.60;;
48777;SDS011;34578;0.000;0.000;2023-02-17T21:45:29;3.35;;;0.93;;
48777;SDS011;34578;0.000;0.000;2023-02-17T21:50:36;3.22;;;0.90;;
48777;SDS011;34578;0.000;0.000;2023-02-17T21:55:37;1.23;;;0.63;;
48777;SDS011;34578;0.000;0.000;2023-02-17T22:00:37;3.45;;;1.15;;
48777;SDS011;34578;0.000;0.000;2023-02-17T22:05:37;2.97;;;1.00;;
48777;SDS011;34578;0.000;0.000;2023-02-17T22:10:38;5.10;;;1.58;;
48777;SDS011;34578;0.000;0.000;2023-02-17T22:15:39;1.90;;;0.95;;
48777;SDS011;34578;0.000;0.000;2023-02-17T22:20:42;2.05;;;0.85;;
48777;SDS011;34578;0.000;0.000;2023-02-17T22:25:43;4.82;;;1.10;;
48777;SDS011;34578;0.000;0.000;2023-02-17T22:30:48;1.37;;;0.80;;
48777;SDS011;34578;0.000;0.000;2023-02-17T22:35:55;2.55;;;1.00;;
48777;SDS011;34578;0.000;0.000;2023-02-17T22:40:57;3.20;;;0.82;;
48777;SDS011;34578;0.000;0.000;2023-02-17T22:45:58;2.55;;;0.98;;
48777;SDS011;34578;0.000;0.000;2023-02-17T22:51:05;2.00;;;0.63;;
48777;SDS011;34578;0.000;0.000;2023-02-17T22:56:07;2.67;;;1.05;;
48777;SDS011;34578;0.000;0.000;2023-02-17T23:06:14;1.08;;;0.85;;
48777;SDS011;34578;0.000;0.000;2023-02-17T23:11:22;2.47;;;1.85;;
48777;SDS011;34578;0.000;0.000;2023-02-17T23:16:44;1.13;;;0.93;;
48777;SDS011;34578;0.000;0.000;2023-02-17T23:21:45;1.10;;;0.77;;
48777;SDS011;34578;0.000;0.000;2023-02-17T23:26:49;6.78;;;1.75;;
48777;SDS011;34578;0.000;0.000;2023-02-17T23:31:50;2.35;;;0.88;;
48777;SDS011;34578;0.000;0.000;2023-02-17T23:36:50;2.25;;;0.98;;
48777;SDS011;34578;0.000;0.000;2023-02-17T23:41:51;3.20;;;1.07;;
48777;SDS011;34578;0.000;0.000;2023-02-17T23:46:51;9.30;;;0.97;;
48777;SDS011;34578;0.000;0.000;2023-02-17T23:51:51;0.77;;;0.40;;
48777;SDS011;34578;0.000;0.000;2023-02-17T23:56:52;1.90;;;0.80;;
